• Join FlightAware (Why Join?)
  • Login
  • US Flag 
08:17PM EDT


 

Airport Tracker/Info


-or-


 

Live Flight TrackerFlight Track Log ✈ UCA3597 ✈ 13-Dec-2013 ✈ KBGM - KIAD

Flight Track Log - Related Links

Times and Time Zones

All times are in EST time to prevent confusion due to time zone crossing. See the UCA3597 flight status page for this flight to view local times or setup timezone preferences in your user account.

Time Position Orientation Groundspeed Altitude Reporting Facility
EST Latitude Longitude Course Direction KTS MPH feet Rate Location/Type
08:46PM 42.1742 -76.0592 189° South 174 200 6,600  Level New York Center
08:47PM 42.1372 -76.0928 214° Southwest 179 206 8,600 1,980 Climbing New York Center
08:48PM 42.0983 -76.1258 212° Southwest 173 199 10,600 1,800 Climbing New York Center
08:49PM 42.0592 -76.1619 214° Southwest 173 199 12,300 1,500 Climbing New York Center
08:50PM 41.5630 -76.2850 189° South  Level Estimated
08:50PM 42.0078 -76.1911 203° Southwest 197 227 13,600  Level New York Center
08:51PM 41.9589 -76.2178 202° Southwest 211 243 14,900 600 Climbing New York Center
08:52PM 41.9008 -76.2547 205° Southwest 226 260 14,900 360 Level New York Center
08:53PM 41.8283 -76.2933 202° Southwest 242 278 15,700 540 Climbing New York Center
08:54PM 41.7683 -76.3275 203° Southwest 242 278 16,000 120 Climbing New York Center
08:55PM 41.7064 -76.3639 204° Southwest 242 278 16,000  Level New York Center
08:56PM 41.6483 -76.3978 204° Southwest 242 278 16,000  Level New York Center
08:57PM 41.5800 -76.4367 203° Southwest 247 284 16,000  Level New York Center
08:58PM 41.5158 -76.4728 203° Southwest 247 284 16,000  Level New York Center
08:59PM 41.4536 -76.5089 204° Southwest 247 284 16,000  Level New York Center
09:00PM 41.3978 -76.5403 203° Southwest 242 278 16,000  Level New York Center
09:01PM 41.3358 -76.5764 204° Southwest 242 278 16,000  Level New York Center
09:02PM 41.2672 -76.6144 203° Southwest 242 278 16,000  Level New York Center
09:03PM 41.2028 -76.6503 203° Southwest 242 278 16,000  Level New York Center
09:04PM 41.1469 -76.6869 206° Southwest 248 285 16,000  Level New York Center
09:05PM 41.0825 -76.7225 203° Southwest 248 285 16,000  Level New York Center
09:06PM 41.0164 -76.7581 202° Southwest 248 285 16,000  Level New York Center
09:07PM 40.9539 -76.7964 205° Southwest 253 291 16,000  Level New York Center
09:08PM 40.8853 -76.8344 203° Southwest 253 291 16,000 -60 Level New York Center
09:09PM 40.8253 -76.8647 201° Southwest 253 291 15,900 -60 Descending New York Center
09:10PM 40.7486 -76.8989 199° South 264 304 15,900  Level New York Center
09:11PM 40.6850 -76.9178 193° South 264 304 15,900  Level New York Center
09:12PM 40.6067 -76.9436 194° South 264 304 16,000  Climbing New York Center
09:13PM 40.5431 -76.9625 193° South 269 310 15,900 -60 Descending New York Center
09:14PM 40.4644 -76.9883 194° South 269 310 15,900  Level New York Center
09:15PM 40.4011 -77.0072 193° South 269 310 15,900  Level New York Center
09:16PM 40.3225 -77.0328 194° South 269 310 15,900  Level New York Center
09:17PM 40.2592 -77.0514 193° South 269 310 15,900  Level New York Center
09:18PM 40.1786 -77.0742 192° South 264 304 15,900  Level New York Center
09:19PM 40.1086 -77.0975 194° South 264 304 15,900 -480 Level New York Center
09:20PM 40.0367 -77.1181 192° South 264 304 15,000 -1,020 Descending New York Center
09:22PM 39.9167 -77.1500 192° South 274 315 13,400 -1,020 Descending Potomac TRACON
09:23PM 39.8500 -77.1833 201° Southwest 273 314 12,400 -1,020 Descending Potomac TRACON
09:24PM 39.7667 -77.2000 189° South 277 319 11,400 -900 Descending Potomac TRACON
09:25PM 39.7167 -77.2167 194° South 271 312 10,700 -900 Descending Potomac TRACON
09:26PM 39.6500 -77.2667 210° Southwest 255 293 9,800 -960 Descending Potomac TRACON
09:27PM 39.5833 -77.3167 210° Southwest 256 295 8,900 -900 Descending Potomac TRACON
09:28PM 39.5333 -77.3667 218° Southwest 255 293 8,000 -900 Descending Potomac TRACON
09:29PM 39.4833 -77.4167 218° Southwest 252 290 7,100 -900 Descending Potomac TRACON
09:30PM 39.4167 -77.4500 201° Southwest 246 283 6,300 -600 Descending Potomac TRACON
09:31PM 39.3500 -77.4500 180° South 251 289 6,000 -360 Descending Potomac TRACON
09:32PM 39.2667 -77.4500 180° South 262 302 5,600 -540 Descending Potomac TRACON
09:33PM 39.2000 -77.4500 180° South 258 297 5,000 -900 Descending Potomac TRACON
09:34PM 39.1333 -77.4500 180° South 252 290 3,800 -1,500 Descending Potomac TRACON
09:35PM 39.0667 -77.4500 180° South 242 278 2,100 -1,320 Descending Potomac TRACON
09:36PM 39.0167 -77.4500 180° South 206 237 1,100 -960 Descending Potomac TRACON